createdAt,value
2018-03-06T00:00:33.864Z,48.67
2018-03-06T00:03:02.231Z,49.13
2018-03-06T00:05:29.598Z,46.07
2018-03-06T00:07:56.967Z,52.07
2018-03-06T00:10:25.260Z,48.03
2018-03-06T00:12:53.551Z,52.13
2018-03-06T00:15:21.675Z,59.60
2018-03-06T00:17:49.040Z,42.80
2018-03-06T00:20:16.470Z,48.80
2018-03-06T00:22:43.952Z,48.37
2018-03-06T00:25:12.279Z,45.20
2018-03-06T00:27:40.406Z,41.97
2018-03-06T00:30:08.603Z,51.80
2018-03-06T00:32:36.883Z,52.13
2018-03-06T00:35:05.003Z,51.93
2018-03-06T00:37:33.128Z,43.53
2018-03-06T00:40:00.783Z,44.87
2018-03-06T00:42:28.163Z,52.70
2018-03-06T00:44:55.519Z,46.47
2018-03-06T00:47:23.177Z,43.73
2018-03-06T00:49:51.292Z,47.80
2018-03-06T00:52:18.678Z,42.90
2018-03-06T00:54:46.920Z,46.10
2018-03-06T00:57:14.520Z,52.03
2018-03-06T00:59:42.788Z,50.30
2018-03-06T01:02:10.920Z,50.17
2018-03-06T01:04:38.671Z,46.00
2018-03-06T01:07:06.893Z,45.13
2018-03-06T01:09:35.195Z,54.63
2018-03-06T01:12:03.275Z,49.00
2018-03-06T01:14:30.912Z,50.17
2018-03-06T01:16:59.183Z,43.50
2018-03-06T01:19:27.310Z,52.50
2018-03-06T01:21:56.111Z,49.30
2018-03-06T01:24:23.821Z,48.87
2018-03-06T01:26:52.071Z,48.43
2018-03-06T01:29:20.236Z,50.97
2018-03-06T01:31:48.439Z,53.40
2018-03-06T01:34:16.576Z,50.87
2018-03-06T01:36:43.940Z,57.70
2018-03-06T01:39:12.204Z,47.23
2018-03-06T01:41:39.634Z,55.03
2018-03-06T01:44:07.892Z,59.70
2018-03-06T01:46:35.272Z,58.07
2018-03-06T01:49:02.639Z,46.23
2018-03-06T01:51:36.996Z,60.00
2018-03-06T01:54:05.063Z,62.37
2018-03-06T01:56:33.400Z,53.30
2018-03-06T01:59:00.752Z,51.97
2018-03-06T02:01:29.056Z,57.67
2018-03-06T02:03:57.200Z,61.53
2018-03-06T02:06:25.539Z,58.33
2018-03-06T02:08:52.959Z,54.07
2018-03-06T02:11:20.504Z,59.30
2018-03-06T02:13:48.529Z,57.70
2018-03-06T02:16:15.860Z,69.03
2018-03-06T02:18:43.224Z,61.43
2018-03-06T02:21:11.335Z,61.13
2018-03-06T02:23:39.660Z,65.23
2018-03-06T02:26:07.751Z,65.00
2018-03-06T02:28:35.864Z,58.03
2018-03-06T02:31:04.163Z,55.90
2018-03-06T02:33:31.549Z,51.77
2018-03-06T02:35:59.803Z,54.80
2018-03-06T02:38:27.879Z,61.30
2018-03-06T02:40:56.220Z,55.33
2018-03-06T02:43:23.547Z,69.07
2018-03-06T02:45:51.843Z,60.37
2018-03-06T02:48:20.999Z,59.13
2018-03-06T02:50:49.296Z,68.13
2018-03-06T02:53:16.648Z,65.53
2018-03-06T02:55:44.748Z,69.13
2018-03-06T02:58:12.116Z,62.90
2018-03-06T03:00:40.236Z,68.47
2018-03-06T03:03:08.537Z,56.73
2018-03-06T03:05:36.713Z,71.70
2018-03-06T03:08:04.116Z,64.67
2018-03-06T03:10:32.379Z,57.60
2018-03-06T03:12:59.723Z,69.27
2018-03-06T03:15:28.000Z,70.53
2018-03-06T03:17:56.299Z,60.03
2018-03-06T03:20:24.574Z,64.40
2018-03-06T03:22:51.974Z,67.20
2018-03-06T03:25:19.397Z,62.27
2018-03-06T03:27:47.509Z,66.97
2018-03-06T03:30:15.579Z,64.40
2018-03-06T03:32:43.659Z,72.87
2018-03-06T03:35:11.680Z,60.43
2018-03-06T03:37:39.976Z,71.53
2018-03-06T03:40:08.244Z,71.57
2018-03-06T03:42:36.944Z,67.03
2018-03-06T03:45:04.428Z,75.07
2018-03-06T03:47:32.770Z,88.30
2018-03-06T03:50:00.141Z,81.93
2018-03-06T03:52:28.337Z,65.37
2018-03-06T03:54:56.727Z,74.67
2018-03-06T03:57:24.099Z,72.03
2018-03-06T03:59:52.353Z,75.90
2018-03-06T04:02:19.875Z,75.60
2018-03-06T04:04:47.273Z,74.57
2018-03-06T04:07:14.713Z,69.03
2018-03-06T04:09:43.009Z,63.47
2018-03-06T04:12:11.108Z,69.47
2018-03-06T04:14:39.419Z,63.53
2018-03-06T04:17:09.341Z,65.23
2018-03-06T04:19:36.711Z,80.70
2018-03-06T04:22:04.127Z,68.50
2018-03-06T04:24:32.320Z,75.47
2018-03-06T04:26:59.701Z,70.00
2018-03-06T04:29:27.839Z,75.00
2018-03-06T04:31:55.943Z,74.83
2018-03-06T04:34:24.295Z,65.93
2018-03-06T04:36:52.627Z,72.50
2018-03-06T04:39:20.692Z,70.13
2018-03-06T04:41:48.086Z,70.87
2018-03-06T04:44:15.434Z,64.57
2018-03-06T04:46:43.557Z,76.20
2018-03-06T04:49:11.901Z,77.67
2018-03-06T04:51:39.304Z,72.87
2018-03-06T04:54:07.599Z,72.33
2018-03-06T04:56:35.748Z,70.57
2018-03-06T04:59:04.068Z,72.47
2018-03-06T05:01:32.211Z,71.67
2018-03-06T05:03:59.651Z,71.47
2018-03-06T05:06:27.764Z,68.40
2018-03-06T05:08:56.075Z,77.00
2018-03-06T05:11:23.433Z,81.90
2018-03-06T05:13:51.882Z,70.63
2018-03-06T05:16:20.124Z,69.53
2018-03-06T05:18:48.465Z,73.50
2018-03-06T05:21:16.508Z,72.67
2018-03-06T05:23:44.633Z,71.20
2018-03-06T05:26:12.935Z,69.87
2018-03-06T05:28:40.263Z,69.00
2018-03-06T05:31:08.567Z,73.50
2018-03-06T05:33:36.073Z,66.80
2018-03-06T05:36:03.480Z,73.93
2018-03-06T05:38:31.600Z,69.33
2018-03-06T05:40:58.983Z,76.60
2018-03-06T05:43:27.101Z,75.33
2018-03-06T05:45:54.500Z,74.40
2018-03-06T05:48:22.653Z,75.10
2018-03-06T05:50:50.104Z,78.03
2018-03-06T05:53:18.715Z,75.90
2018-03-06T05:55:46.900Z,68.37
2018-03-06T05:58:15.191Z,66.10
2018-03-06T06:00:42.819Z,72.13
2018-03-06T06:03:11.079Z,69.70
2018-03-06T06:05:39.402Z,66.93
2018-03-06T06:08:08.367Z,69.20
2018-03-06T06:10:36.640Z,69.10
2018-03-06T06:13:04.917Z,78.90
2018-03-06T06:15:33.627Z,75.13
2018-03-06T06:18:02.082Z,83.13
2018-03-06T06:20:30.694Z,77.37
2018-03-06T06:22:58.036Z,77.27
2018-03-06T06:25:26.332Z,78.33
2018-03-06T06:27:54.574Z,77.27
2018-03-06T06:30:22.673Z,64.87
2018-03-06T06:32:50.447Z,73.87
2018-03-06T06:35:18.551Z,73.73
2018-03-06T06:37:46.049Z,76.27
2018-03-06T06:40:14.343Z,82.87
2018-03-06T06:42:42.529Z,72.30
2018-03-06T06:45:10.748Z,75.50
2018-03-06T06:47:38.121Z,74.90
2018-03-06T06:50:05.429Z,72.90
2018-03-06T06:52:32.790Z,66.13
2018-03-06T06:55:00.913Z,73.80
2018-03-06T06:57:29.236Z,74.57
2018-03-06T06:59:57.345Z,68.47
2018-03-06T07:02:25.486Z,74.30
2018-03-06T07:04:52.839Z,74.87
2018-03-06T07:07:21.067Z,66.23
2018-03-06T07:09:49.168Z,67.83
2018-03-06T07:12:16.544Z,69.17
2018-03-06T07:14:44.093Z,74.30
2018-03-06T07:17:11.424Z,70.83
2018-03-06T07:19:38.772Z,77.77
2018-03-06T07:22:07.038Z,70.63
2018-03-06T07:24:35.204Z,84.97
2018-03-06T07:27:02.556Z,84.03
2018-03-06T07:29:30.646Z,77.07
2018-03-06T07:31:58.923Z,74.30
2018-03-06T07:34:27.045Z,65.67
2018-03-06T07:36:55.110Z,85.73
2018-03-06T07:39:23.388Z,87.73
2018-03-06T07:41:50.844Z,82.33
2018-03-06T07:44:19.079Z,79.43
2018-03-06T07:46:47.152Z,93.10
2018-03-06T07:49:15.261Z,85.10
2018-03-06T07:51:42.606Z,84.53
2018-03-06T07:54:10.762Z,86.83
2018-03-06T07:56:38.105Z,86.33
2018-03-06T07:59:05.480Z,86.73
2018-03-06T08:01:33.076Z,82.70
2018-03-06T08:04:01.369Z,93.77
2018-03-06T08:06:29.491Z,85.83
2018-03-06T08:08:57.771Z,82.47
2018-03-06T08:11:25.983Z,79.90
2018-03-06T08:13:54.239Z,76.07
2018-03-06T08:16:21.599Z,87.53
2018-03-06T08:18:48.929Z,75.20
2018-03-06T08:21:17.027Z,77.33
2018-03-06T08:23:44.395Z,78.13
2018-03-06T08:26:12.754Z,85.30
2018-03-06T08:28:41.043Z,84.50
2018-03-06T08:31:08.453Z,75.90
2018-03-06T08:33:36.540Z,80.43
2018-03-06T08:36:04.880Z,77.30
2018-03-06T08:38:33.028Z,80.17
2018-03-06T08:41:00.465Z,82.00
2018-03-06T08:43:28.763Z,80.40
2018-03-06T08:45:56.132Z,77.07
2018-03-06T08:48:24.220Z,74.23
2018-03-06T08:50:52.504Z,79.20
2018-03-06T08:53:19.881Z,80.80
2018-03-06T08:55:47.269Z,76.90
2018-03-06T08:58:14.614Z,76.40
2018-03-06T09:00:42.985Z,85.43
2018-03-06T09:03:10.465Z,77.83
2018-03-06T09:05:38.759Z,79.23
2018-03-06T09:08:07.028Z,72.53
2018-03-06T09:10:35.128Z,78.50
2018-03-06T09:13:03.232Z,81.80
2018-03-06T09:15:30.590Z,77.70
2018-03-06T09:17:58.208Z,68.37
2018-03-06T09:20:25.603Z,68.77
2018-03-06T09:22:53.939Z,80.23
2018-03-06T09:25:22.097Z,93.70
2018-03-06T09:27:49.428Z,79.77
2018-03-06T09:30:17.736Z,83.37
2018-03-06T09:32:45.104Z,78.03
2018-03-06T09:35:13.468Z,83.77
2018-03-06T09:37:41.762Z,92.33
2018-03-06T09:40:09.155Z,82.17
2018-03-06T09:42:36.502Z,88.33
2018-03-06T09:45:03.880Z,71.40
2018-03-06T09:47:31.996Z,84.00
2018-03-06T09:50:00.097Z,85.83
2018-03-06T09:52:27.507Z,82.67
2018-03-06T09:54:54.839Z,84.80
2018-03-06T09:57:22.956Z,91.37
2018-03-06T09:59:50.311Z,84.93
2018-03-06T10:02:18.518Z,84.20
2018-03-06T10:04:45.860Z,80.17
2018-03-06T10:07:13.244Z,85.00
2018-03-06T10:09:41.579Z,83.97
2018-03-06T10:12:09.667Z,85.63
2018-03-06T10:14:37.028Z,86.30
2018-03-06T10:17:05.295Z,73.07
2018-03-06T10:19:32.655Z,85.77
2018-03-06T10:22:01.024Z,84.83
2018-03-06T10:24:28.446Z,82.63
2018-03-06T10:26:56.816Z,93.67
2018-03-06T10:29:24.280Z,88.63
2018-03-06T10:31:51.625Z,91.77
2018-03-06T10:34:19.732Z,84.00
2018-03-06T10:36:47.091Z,90.93
2018-03-06T10:39:14.426Z,81.90
2018-03-06T10:41:42.532Z,88.53
2018-03-06T10:44:09.939Z,83.37
2018-03-06T10:46:38.104Z,81.70
2018-03-06T10:49:06.517Z,79.37
2018-03-06T10:51:33.974Z,78.70
2018-03-06T10:54:02.049Z,81.00
2018-03-06T10:56:29.395Z,84.83
2018-03-06T10:58:57.782Z,81.27
2018-03-06T11:01:25.151Z,73.77
2018-03-06T11:03:53.247Z,74.87
2018-03-06T11:06:21.328Z,75.00
2018-03-06T11:08:49.436Z,67.17
2018-03-06T11:11:16.801Z,78.37
2018-03-06T11:13:44.919Z,73.73
2018-03-06T11:16:12.285Z,58.57
2018-03-06T11:18:40.382Z,56.10
2018-03-06T11:21:08.650Z,54.23
2018-03-06T11:23:36.009Z,58.53
2018-03-06T11:26:04.263Z,53.20
2018-03-06T11:28:31.667Z,56.63
2018-03-06T11:30:59.768Z,55.17
2018-03-06T11:33:27.889Z,51.57
2018-03-06T11:35:56.192Z,51.47
2018-03-06T11:38:23.566Z,52.23
2018-03-06T11:40:51.001Z,58.10
2018-03-06T11:43:18.369Z,56.93
2018-03-06T11:45:46.679Z,58.00
2018-03-06T11:48:14.017Z,55.93
2018-03-06T11:50:42.280Z,51.17
2018-03-06T11:53:10.623Z,52.50
2018-03-06T11:55:38.042Z,57.87
2018-03-06T11:58:06.320Z,52.40
2018-03-06T12:00:34.419Z,51.70
2018-03-06T12:03:01.815Z,47.60
2018-03-06T12:05:30.087Z,51.57
2018-03-06T12:07:58.213Z,49.77
2018-03-06T12:10:26.512Z,47.70
2018-03-06T12:12:54.744Z,48.83
2018-03-06T12:15:22.209Z,47.13
2018-03-06T12:17:50.359Z,51.03
2018-03-06T12:20:18.474Z,48.57
2018-03-06T12:22:45.864Z,41.67
2018-03-06T12:25:14.195Z,49.87
2018-03-06T12:27:41.559Z,47.20
2018-03-06T12:30:09.680Z,47.47
2018-03-06T12:32:37.949Z,46.63
2018-03-06T12:35:05.312Z,50.13
2018-03-06T12:37:33.642Z,47.40
2018-03-06T12:40:00.960Z,44.83
2018-03-06T12:42:29.115Z,44.47
2018-03-06T12:44:56.484Z,49.83
2018-03-06T12:47:24.594Z,46.67
2018-03-06T12:49:52.889Z,48.43
2018-03-06T12:52:20.349Z,49.23
2018-03-06T12:54:48.659Z,45.43
2018-03-06T12:57:16.753Z,47.43
2018-03-06T12:59:44.830Z,48.23
2018-03-06T13:02:12.209Z,48.43
2018-03-06T13:04:39.664Z,43.97
2018-03-06T13:07:07.012Z,49.43
2018-03-06T13:09:35.352Z,45.80
2018-03-06T13:12:03.428Z,48.47
2018-03-06T13:14:30.779Z,46.40
2018-03-06T13:16:58.211Z,50.83
2018-03-06T13:19:25.580Z,53.37
2018-03-06T13:21:53.029Z,51.07
2018-03-06T13:24:21.372Z,43.23
2018-03-06T13:26:49.649Z,45.50
2018-03-06T13:29:17.783Z,45.10
2018-03-06T13:31:45.128Z,48.63
2018-03-06T13:34:12.529Z,48.90
2018-03-06T13:36:40.815Z,38.10
2018-03-06T13:39:08.292Z,49.03
2018-03-06T13:41:35.618Z,45.50
2018-03-06T13:44:03.897Z,39.07
2018-03-06T13:46:32.168Z,43.67
2018-03-06T13:48:59.504Z,48.83
2018-03-06T13:51:27.645Z,44.73
2018-03-06T13:53:55.018Z,41.93
2018-03-06T13:56:22.536Z,50.50
2018-03-06T13:58:51.140Z,52.73
2018-03-06T14:01:19.268Z,42.77
2018-03-06T14:03:47.649Z,46.47
2018-03-06T14:06:15.289Z,41.10
2018-03-06T14:08:42.700Z,39.53
2018-03-06T14:11:10.788Z,49.93
2018-03-06T14:13:38.905Z,43.90
2018-03-06T14:16:06.338Z,47.37
2018-03-06T14:18:33.718Z,50.27
2018-03-06T14:21:01.968Z,40.33
2018-03-06T14:23:29.347Z,41.73
2018-03-06T14:25:56.765Z,45.73
2018-03-06T14:28:24.141Z,48.00
2018-03-06T14:30:51.489Z,41.13
2018-03-06T14:33:18.893Z,41.60
2018-03-06T14:35:47.016Z,43.23
2018-03-06T14:38:14.459Z,49.10
2018-03-06T14:40:42.571Z,41.17
2018-03-06T14:43:10.684Z,46.47
2018-03-06T14:45:38.813Z,34.03
2018-03-06T14:48:06.176Z,44.77
2018-03-06T14:50:34.490Z,47.53
2018-03-06T14:53:02.781Z,42.57
2018-03-06T14:55:30.148Z,48.00
2018-03-06T14:57:58.307Z,45.30
2018-03-06T15:00:25.843Z,49.10
2018-03-06T15:02:54.193Z,48.03
2018-03-06T15:05:21.575Z,42.93
2018-03-06T15:07:49.080Z,45.20
2018-03-06T15:10:17.402Z,40.40
2018-03-06T15:12:44.728Z,46.60
2018-03-06T15:15:12.857Z,39.00
2018-03-06T15:17:41.155Z,36.23
2018-03-06T15:20:08.559Z,44.00
2018-03-06T15:22:37.582Z,40.27
2018-03-06T15:25:04.973Z,40.10
2018-03-06T15:27:32.314Z,38.57
2018-03-06T15:29:59.859Z,34.87
2018-03-06T15:32:27.248Z,37.53
2018-03-06T15:34:54.652Z,41.17
2018-03-06T15:37:22.165Z,36.77
2018-03-06T15:39:49.621Z,41.10
2018-03-06T15:42:32.736Z,37.23
2018-03-06T15:45:04.760Z,36.77
2018-03-06T15:47:34.776Z,39.00
2018-03-06T15:50:02.310Z,33.63
2018-03-06T15:52:39.996Z,31.93
2018-03-06T15:55:12.992Z,35.87
2018-03-06T15:57:51.685Z,35.47
2018-03-06T16:00:21.364Z,38.70
2018-03-06T16:02:56.260Z,35.13
2018-03-06T16:05:28.947Z,33.13
2018-03-06T16:07:58.931Z,30.33
2018-03-06T16:10:26.393Z,32.23
2018-03-06T16:12:56.339Z,28.23
2018-03-06T16:15:28.305Z,36.83
2018-03-06T16:17:56.037Z,30.93
2018-03-06T16:20:25.279Z,34.17
2018-03-06T16:22:55.598Z,33.23
2018-03-06T16:25:23.012Z,32.50
2018-03-06T16:27:55.110Z,30.20
2018-03-06T16:30:23.493Z,37.63
2018-03-06T16:32:51.675Z,33.20
2018-03-06T16:35:25.982Z,30.90
2018-03-06T16:37:58.194Z,31.33
2018-03-06T16:40:25.690Z,25.80
2018-03-06T16:42:55.739Z,32.03
2018-03-06T16:45:25.065Z,33.37
2018-03-06T16:47:55.067Z,25.40
2018-03-06T16:50:25.149Z,28.50
2018-03-06T16:52:54.653Z,30.20
2018-03-06T16:55:22.873Z,41.47
2018-03-06T16:57:55.252Z,30.97
2018-03-06T17:00:24.623Z,32.93
2018-03-06T17:02:52.873Z,31.60
2018-03-06T17:05:20.365Z,34.30
2018-03-06T17:07:48.913Z,40.07
2018-03-06T17:10:18.289Z,34.17
2018-03-06T17:12:45.887Z,31.93
2018-03-06T17:15:13.297Z,33.77
2018-03-06T17:17:40.909Z,34.90
2018-03-06T17:20:09.227Z,37.07
2018-03-06T17:22:40.544Z,32.07
2018-03-06T17:25:08.906Z,34.53
2018-03-06T17:27:38.539Z,32.23
2018-03-06T17:30:10.825Z,33.17
2018-03-06T17:32:38.285Z,30.90
2018-03-06T17:35:05.782Z,26.17
2018-03-06T17:37:34.285Z,35.20
2018-03-06T17:40:06.069Z,30.13
2018-03-06T17:42:33.741Z,28.50
2018-03-06T17:45:04.178Z,31.37
2018-03-06T17:47:31.649Z,37.37
2018-03-06T17:52:34.007Z,32.20
2018-03-06T17:55:01.417Z,31.70
2018-03-06T17:57:33.293Z,28.20
2018-03-06T18:00:04.367Z,27.77
2018-03-06T18:02:35.588Z,34.37
2018-03-06T18:05:04.032Z,31.40
2018-03-06T18:07:33.354Z,33.60
2018-03-06T18:10:07.274Z,28.97
2018-03-06T18:12:37.659Z,29.20
2018-03-06T18:15:12.942Z,30.73
2018-03-06T18:17:45.280Z,28.73
2018-03-06T18:20:15.592Z,30.60
2018-03-06T18:22:45.179Z,32.87
2018-03-06T18:25:15.452Z,31.20
2018-03-06T18:27:43.308Z,26.43
2018-03-06T18:30:11.771Z,26.00
2018-03-06T18:32:44.464Z,33.87
2018-03-06T18:35:14.969Z,28.03
2018-03-06T18:37:48.060Z,29.93
2018-03-06T18:40:18.010Z,28.13
2018-03-06T18:42:54.005Z,31.67
2018-03-06T18:45:23.013Z,27.33
2018-03-06T18:47:53.710Z,23.63
2018-03-06T18:53:33.543Z,30.17
2018-03-06T18:56:02.008Z,24.77
2018-03-06T18:58:30.337Z,24.50
2018-03-06T19:01:09.840Z,29.10
2018-03-06T19:03:56.286Z,29.03
2018-03-06T19:06:37.254Z,27.53
2018-03-06T19:09:12.854Z,31.57
2018-03-06T19:11:43.080Z,24.80
2018-03-06T19:14:11.544Z,29.57
2018-03-06T19:16:40.821Z,26.03
2018-03-06T19:19:08.669Z,28.03
2018-03-06T19:21:36.857Z,20.33
2018-03-06T19:24:09.329Z,23.97
2018-03-06T19:26:38.902Z,28.00
2018-03-06T19:29:06.372Z,25.93
2018-03-06T19:31:35.650Z,30.37
2018-03-06T19:34:04.184Z,23.83
2018-03-06T19:36:34.250Z,31.93
2018-03-06T19:39:02.657Z,30.87
2018-03-06T19:41:30.827Z,29.47
2018-03-06T19:44:00.258Z,25.80
2018-03-06T19:46:27.688Z,21.00
2018-03-06T19:49:01.907Z,23.13
2018-03-06T19:51:29.343Z,25.67
2018-03-06T19:53:58.712Z,28.87
2018-03-06T19:56:28.097Z,26.67
2018-03-06T19:58:57.961Z,26.77
2018-03-06T20:01:28.953Z,23.07
2018-03-06T20:03:58.242Z,29.27
2018-03-06T20:06:34.384Z,25.03
2018-03-06T20:09:03.643Z,22.37
2018-03-06T20:11:32.885Z,25.60
2018-03-06T20:14:03.864Z,28.67
2018-03-06T20:16:36.991Z,23.47
2018-03-06T20:19:11.224Z,24.97
2018-03-06T20:21:40.423Z,24.73
2018-03-06T20:24:13.908Z,24.93
2018-03-06T20:26:46.077Z,19.03
2018-03-06T20:29:17.070Z,23.73
2018-03-06T20:31:51.149Z,25.60
2018-03-06T20:34:22.960Z,20.40
2018-03-06T20:36:52.173Z,25.30
2018-03-06T20:39:30.128Z,21.33
2018-03-06T20:42:04.738Z,25.13
2018-03-06T20:44:38.104Z,22.70
2018-03-06T20:47:13.459Z,22.43
2018-03-06T20:49:43.877Z,21.00
2018-03-06T20:52:15.071Z,24.77
2018-03-06T20:54:51.298Z,24.30
2018-03-06T20:57:20.751Z,18.30
2018-03-06T20:59:50.979Z,28.37
2018-03-06T21:02:21.919Z,20.27
2018-03-06T21:04:50.052Z,21.17
2018-03-06T21:07:17.448Z,27.63
2018-03-06T21:09:46.858Z,24.50
2018-03-06T21:12:14.351Z,23.93
2018-03-06T21:14:41.755Z,26.00
2018-03-06T21:17:09.867Z,21.07
2018-03-06T21:19:37.442Z,25.57
2018-03-06T21:22:06.425Z,27.10
2018-03-06T21:24:33.869Z,22.03
2018-03-06T21:27:04.036Z,26.23
2018-03-06T21:29:31.565Z,26.73
2018-03-06T21:31:59.724Z,25.53
2018-03-06T21:34:28.118Z,28.37
2018-03-06T21:37:06.972Z,28.23
2018-03-06T21:39:35.370Z,28.70
2018-03-06T21:42:15.188Z,26.90
2018-03-06T21:44:45.940Z,29.20
2018-03-06T21:47:15.008Z,22.77
2018-03-06T21:49:45.611Z,31.27
2018-03-06T21:52:14.060Z,24.87
2018-03-06T21:54:42.330Z,23.50
2018-03-06T21:57:09.786Z,25.90
2018-03-06T21:59:38.741Z,27.20
2018-03-06T22:02:07.839Z,30.20
2018-03-06T22:04:38.806Z,28.00
2018-03-06T22:07:06.228Z,31.43
2018-03-06T22:09:39.299Z,31.33
2018-03-06T22:12:09.508Z,27.47
2018-03-06T22:14:36.904Z,27.13
2018-03-06T22:17:05.056Z,30.63
2018-03-06T22:19:34.283Z,20.97
2018-03-06T22:22:02.692Z,26.30
2018-03-06T22:24:37.573Z,30.07
2018-03-06T22:27:05.779Z,28.47
2018-03-06T22:29:34.059Z,25.20
2018-03-06T22:32:01.488Z,22.73
2018-03-06T22:34:33.357Z,23.60
2018-03-06T22:37:01.537Z,18.80
2018-03-06T22:39:31.768Z,20.77
2018-03-06T22:42:04.901Z,19.87
2018-03-06T22:44:36.919Z,20.10
2018-03-06T22:47:08.846Z,18.57
2018-03-06T22:49:39.753Z,18.93
2018-03-06T22:52:07.112Z,19.57
2018-03-06T22:54:35.251Z,21.20
2018-03-06T22:57:02.687Z,19.90
2018-03-06T22:59:30.780Z,21.43
2018-03-06T23:01:58.881Z,20.93
2018-03-06T23:04:27.021Z,21.43
2018-03-06T23:06:54.329Z,20.77
2018-03-06T23:09:21.737Z,21.13
2018-03-06T23:11:49.123Z,19.87
2018-03-06T23:14:17.411Z,19.20
2018-03-06T23:16:44.800Z,21.73
2018-03-06T23:19:13.093Z,21.20
2018-03-06T23:21:40.445Z,19.47
2018-03-06T23:24:07.808Z,22.03
2018-03-06T23:26:36.124Z,20.37
2018-03-06T23:29:04.394Z,18.47
2018-03-06T23:31:32.711Z,20.30
2018-03-06T23:34:01.809Z,20.10
2018-03-06T23:36:29.330Z,21.37
2018-03-06T23:38:56.730Z,16.60
2018-03-06T23:41:24.842Z,20.13
2018-03-06T23:43:52.490Z,15.83
2018-03-06T23:46:20.841Z,18.07
2018-03-06T23:48:48.247Z,15.60
2018-03-06T23:51:15.803Z,17.47
2018-03-06T23:53:44.093Z,16.20
2018-03-06T23:56:12.429Z,17.80
2018-03-06T23:58:40.070Z,14.67
